createdAt,value
2019-05-17T00:01:41.461Z,24.07
2019-05-17T00:03:47.127Z,25.32
2019-05-17T00:05:52.998Z,21.57
2019-05-17T00:07:58.163Z,22.20
2019-05-17T00:10:03.458Z,24.77
2019-05-17T00:12:08.727Z,19.87
2019-05-17T00:14:13.990Z,19.80
2019-05-17T00:16:19.534Z,21.30
2019-05-17T00:18:26.476Z,23.77
2019-05-17T00:20:32.643Z,23.20
2019-05-17T00:22:37.826Z,25.63
2019-05-17T00:24:43.195Z,21.03
2019-05-17T00:26:48.187Z,23.55
2019-05-17T00:28:56.147Z,23.90
2019-05-17T00:31:02.830Z,25.57
2019-05-17T00:33:08.287Z,26.50
2019-05-17T00:35:13.765Z,26.10
2019-05-17T00:37:19.408Z,25.33
2019-05-17T00:39:27.056Z,28.60
2019-05-17T00:41:31.729Z,28.67
2019-05-17T00:43:36.973Z,32.53
2019-05-17T00:45:42.343Z,37.00
2019-05-17T00:47:47.566Z,37.20
2019-05-17T00:49:53.067Z,31.43
2019-05-17T00:51:58.692Z,29.60
2019-05-17T00:54:03.694Z,30.80
2019-05-17T00:56:08.965Z,32.95
2019-05-17T00:58:14.093Z,32.37
2019-05-17T01:00:20.393Z,32.30
2019-05-17T01:02:27.031Z,32.40
2019-05-17T01:04:32.592Z,31.87
2019-05-17T01:06:37.765Z,32.40
2019-05-17T01:08:42.983Z,29.87
2019-05-17T01:10:48.560Z,30.10
2019-05-17T01:12:53.752Z,29.20
2019-05-17T01:14:58.805Z,27.07
2019-05-17T01:17:04.404Z,33.80
2019-05-17T01:19:09.615Z,27.20
2019-05-17T01:21:16.857Z,29.70
2019-05-17T01:23:22.903Z,27.00
2019-05-17T01:25:28.890Z,29.15
2019-05-17T01:27:34.034Z,30.50
2019-05-17T01:29:39.633Z,27.83
2019-05-17T01:31:46.488Z,31.67
2019-05-17T01:33:51.689Z,31.00
2019-05-17T01:35:58.155Z,30.10
2019-05-17T01:38:04.049Z,28.90
2019-05-17T01:40:09.555Z,23.70
2019-05-17T01:42:17.251Z,26.13
2019-05-17T01:44:22.518Z,27.60
2019-05-17T01:46:27.646Z,24.53
2019-05-17T01:48:32.649Z,25.50
2019-05-17T01:50:37.853Z,27.43
2019-05-17T01:52:46.211Z,28.83
2019-05-17T01:54:51.710Z,26.33
2019-05-17T01:56:56.825Z,24.70
2019-05-17T01:59:01.918Z,28.47
2019-05-17T02:01:07.823Z,28.07
2019-05-17T02:03:13.003Z,27.83
2019-05-17T02:05:18.225Z,26.63
2019-05-17T02:07:23.724Z,28.00
2019-05-17T02:09:37.704Z,25.00
2019-05-17T02:11:37.339Z,31.50
2019-05-17T02:13:42.237Z,25.83
2019-05-17T02:15:47.359Z,28.10
2019-05-17T02:17:52.518Z,24.60
2019-05-17T02:19:57.753Z,26.07
2019-05-17T02:22:02.748Z,25.53
2019-05-17T02:24:08.087Z,25.27
2019-05-17T02:26:13.282Z,28.40
2019-05-17T02:28:18.501Z,22.60
2019-05-17T02:30:23.868Z,24.03
2019-05-17T02:32:29.088Z,25.50
2019-05-17T02:34:34.747Z,25.90
2019-05-17T02:36:42.819Z,24.27
2019-05-17T02:38:46.469Z,24.20
2019-05-17T02:40:53.569Z,25.03
2019-05-17T02:42:58.917Z,23.70
2019-05-17T02:45:04.534Z,23.27
2019-05-17T02:47:09.551Z,26.07
2019-05-17T02:49:14.553Z,22.53
2019-05-17T02:51:23.422Z,27.97
2019-05-17T02:53:26.283Z,27.20
2019-05-17T02:55:32.452Z,23.20
2019-05-17T02:57:37.727Z,25.70
2019-05-17T02:59:43.354Z,26.33
2019-05-17T03:01:48.672Z,24.63
2019-05-17T03:03:53.835Z,26.13
2019-05-17T03:06:02.641Z,24.90
2019-05-17T03:08:06.305Z,27.37
2019-05-17T03:10:22.139Z,26.40
2019-05-17T03:12:18.764Z,28.10
2019-05-17T03:14:23.850Z,31.33
2019-05-17T03:16:29.061Z,28.67
2019-05-17T03:18:34.210Z,27.60
2019-05-17T03:20:39.243Z,28.77
2019-05-17T03:22:44.567Z,32.43
2019-05-17T03:24:53.052Z,30.90
2019-05-17T03:26:56.628Z,29.33
2019-05-17T03:29:03.221Z,27.75
2019-05-17T03:31:09.613Z,30.40
2019-05-17T03:33:16.878Z,32.33
2019-05-17T03:35:26.450Z,32.30
2019-05-17T03:37:36.376Z,27.87
2019-05-17T03:39:37.277Z,30.00
2019-05-17T03:41:43.020Z,29.50
2019-05-17T03:43:48.093Z,32.90
2019-05-17T03:45:53.536Z,28.90
2019-05-17T03:47:58.888Z,30.47
2019-05-17T03:50:04.210Z,30.97
2019-05-17T03:52:09.328Z,32.97
2019-05-17T03:54:14.591Z,30.07
2019-05-17T03:56:22.218Z,31.70
2019-05-17T03:58:26.044Z,30.90
2019-05-17T04:00:34.858Z,34.07
2019-05-17T04:02:37.947Z,33.33
2019-05-17T04:04:43.276Z,28.43
2019-05-17T04:06:48.527Z,31.82
2019-05-17T04:08:53.702Z,28.63
2019-05-17T04:11:16.428Z,29.33
2019-05-17T04:13:06.552Z,32.83
2019-05-17T04:15:13.369Z,35.07
2019-05-17T04:17:22.572Z,31.27
2019-05-17T04:19:26.155Z,31.23
2019-05-17T04:21:34.145Z,31.53
2019-05-17T04:23:37.898Z,30.50
2019-05-17T04:25:43.753Z,31.70
2019-05-17T04:27:49.050Z,30.43
2019-05-17T04:29:55.329Z,29.23
2019-05-17T04:32:03.538Z,30.47
2019-05-17T04:34:07.318Z,30.00
2019-05-17T04:36:13.081Z,35.30
2019-05-17T04:38:18.494Z,29.20
2019-05-17T04:40:23.578Z,30.30
2019-05-17T04:42:28.825Z,33.40
2019-05-17T04:44:33.860Z,30.60
2019-05-17T04:46:43.191Z,30.77
2019-05-17T04:48:47.965Z,31.13
2019-05-17T04:50:53.839Z,31.53
2019-05-17T04:53:02.257Z,32.57
2019-05-17T04:55:06.323Z,32.10
2019-05-17T04:57:13.056Z,31.27
2019-05-17T04:59:18.199Z,28.00
2019-05-17T05:01:23.775Z,27.57
2019-05-17T05:03:32.401Z,35.70
2019-05-17T05:05:35.646Z,31.40
2019-05-17T05:07:43.160Z,30.93
2019-05-17T05:09:47.473Z,27.30
2019-05-17T05:12:00.715Z,29.20
2019-05-17T05:14:02.860Z,28.10
2019-05-17T05:16:08.413Z,29.73
2019-05-17T05:18:14.824Z,33.13
2019-05-17T05:20:22.172Z,27.27
2019-05-17T05:22:27.346Z,30.63
2019-05-17T05:24:32.690Z,31.37
2019-05-17T05:26:37.779Z,31.47
2019-05-17T05:28:43.219Z,31.10
2019-05-17T05:30:48.074Z,31.37
2019-05-17T05:32:52.900Z,30.00
2019-05-17T05:34:58.074Z,32.37
2019-05-17T05:37:03.211Z,28.87
2019-05-17T05:39:08.861Z,28.93
2019-05-17T05:41:14.022Z,29.57
2019-05-17T05:43:19.389Z,30.80
2019-05-17T05:45:24.883Z,32.57
2019-05-17T05:47:32.243Z,29.77
2019-05-17T05:49:37.125Z,30.30
2019-05-17T05:51:42.613Z,33.90
2019-05-17T05:53:47.823Z,32.40
2019-05-17T05:55:52.868Z,30.00
2019-05-17T05:57:58.136Z,28.50
2019-05-17T06:00:03.169Z,30.57
2019-05-17T06:02:08.411Z,28.40
2019-05-17T06:04:13.449Z,32.10
2019-05-17T06:06:18.644Z,31.03
2019-05-17T06:08:23.903Z,29.90
2019-05-17T06:10:29.324Z,27.65
2019-05-17T06:12:34.553Z,26.60
2019-05-17T06:14:41.693Z,27.30
2019-05-17T06:16:47.769Z,22.23
2019-05-17T06:18:53.080Z,25.83
2019-05-17T06:20:58.248Z,25.60
2019-05-17T06:23:03.362Z,24.33
2019-05-17T06:25:08.793Z,23.70
2019-05-17T06:27:13.794Z,25.07
2019-05-17T06:29:18.873Z,22.63
2019-05-17T06:31:24.306Z,22.43
2019-05-17T06:33:33.797Z,25.13
2019-05-17T06:35:36.112Z,20.67
2019-05-17T06:37:42.250Z,20.67
2019-05-17T06:39:47.758Z,20.80
2019-05-17T06:41:53.080Z,22.13
2019-05-17T06:43:58.534Z,22.33
2019-05-17T06:46:03.963Z,22.50
2019-05-17T06:48:11.465Z,20.90
2019-05-17T06:50:16.544Z,19.00
2019-05-17T06:52:22.561Z,22.90
2019-05-17T06:54:27.979Z,21.73
2019-05-17T06:56:36.467Z,19.80
2019-05-17T06:58:41.747Z,19.97
2019-05-17T07:00:46.929Z,19.03
2019-05-17T07:02:52.090Z,16.73
2019-05-17T07:05:01.335Z,18.37
2019-05-17T07:07:37.177Z,19.47
2019-05-17T07:09:42.193Z,19.13
2019-05-17T07:11:47.369Z,13.95
2019-05-17T07:13:52.505Z,13.30
2019-05-17T07:15:59.545Z,13.40
2019-05-17T07:18:04.405Z,12.57
2019-05-17T07:20:10.500Z,13.13
2019-05-17T07:22:17.227Z,14.13
2019-05-17T07:24:22.355Z,11.30
2019-05-17T07:26:27.507Z,14.00
2019-05-17T07:28:32.710Z,17.03
2019-05-17T07:30:39.974Z,10.77
2019-05-17T07:32:45.072Z,15.93
2019-05-17T07:34:50.877Z,10.70
2019-05-17T07:36:56.459Z,11.37
2019-05-17T07:39:01.735Z,11.37
2019-05-17T07:41:07.047Z,12.97
2019-05-17T07:43:14.830Z,9.57
2019-05-17T07:45:20.325Z,10.03
2019-05-17T07:47:25.511Z,12.07
2019-05-17T07:49:30.740Z,9.63
2019-05-17T07:51:35.927Z,9.33
2019-05-17T07:53:40.997Z,9.53
2019-05-17T07:55:46.462Z,9.60
2019-05-17T07:57:51.582Z,10.63
2019-05-17T07:59:56.929Z,11.90
2019-05-17T08:02:02.051Z,10.80
2019-05-17T08:04:09.850Z,14.33
2019-05-17T08:06:14.501Z,8.23
2019-05-17T08:08:20.756Z,9.73
2019-05-17T08:10:26.154Z,9.57
2019-05-17T08:12:31.336Z,9.07
2019-05-17T08:14:36.400Z,8.63
2019-05-17T08:16:41.350Z,9.60
2019-05-17T08:18:46.278Z,10.23
2019-05-17T08:20:51.325Z,10.10
2019-05-17T08:22:56.566Z,9.40
2019-05-17T08:25:01.793Z,9.47
2019-05-17T08:27:07.036Z,8.40
2019-05-17T08:29:12.535Z,9.30
2019-05-17T08:31:20.024Z,8.70
2019-05-17T08:33:24.458Z,9.27
2019-05-17T08:35:30.435Z,9.03
2019-05-17T08:37:35.777Z,10.43
2019-05-17T08:39:41.040Z,9.50
2019-05-17T08:41:46.263Z,10.00
2019-05-17T08:43:51.680Z,7.60
2019-05-17T08:45:58.574Z,8.90
2019-05-17T08:48:04.989Z,8.17
2019-05-17T08:50:11.570Z,8.80
2019-05-17T08:52:20.059Z,7.83
2019-05-17T08:54:25.357Z,8.80
2019-05-17T08:56:31.042Z,14.00
2019-05-17T08:58:36.472Z,9.07
2019-05-17T09:00:41.599Z,8.93
2019-05-17T09:02:46.937Z,8.27
2019-05-17T09:04:51.946Z,9.40
2019-05-17T09:06:59.423Z,8.00
2019-05-17T09:09:05.182Z,7.83
2019-05-17T09:11:10.638Z,8.15
2019-05-17T09:13:16.165Z,8.30
2019-05-17T09:15:21.409Z,9.63
2019-05-17T09:17:26.680Z,7.80
2019-05-17T09:19:32.222Z,8.50
2019-05-17T09:21:39.580Z,8.40
2019-05-17T09:23:44.700Z,10.83
2019-05-17T09:25:50.244Z,10.47
2019-05-17T09:27:55.392Z,9.07
2019-05-17T09:30:01.709Z,8.60
2019-05-17T09:32:09.421Z,10.00
2019-05-17T09:34:14.085Z,7.70
2019-05-17T09:36:20.483Z,8.67
2019-05-17T09:38:25.857Z,7.43
2019-05-17T09:40:31.076Z,7.23
2019-05-17T09:42:36.350Z,7.37
2019-05-17T09:44:41.960Z,7.90
2019-05-17T09:46:47.450Z,10.57
2019-05-17T09:48:52.654Z,6.80
2019-05-17T09:51:00.028Z,9.00
2019-05-17T09:53:06.783Z,6.80
2019-05-17T09:55:12.718Z,9.27
2019-05-17T09:57:20.276Z,6.73
2019-05-17T09:59:24.669Z,6.10
2019-05-17T10:01:30.507Z,7.40
2019-05-17T10:03:35.960Z,7.73
2019-05-17T10:05:41.336Z,6.50
2019-05-17T10:07:46.427Z,6.40
2019-05-17T10:09:52.361Z,5.77
2019-05-17T10:11:59.907Z,6.53
2019-05-17T10:14:05.668Z,6.03
2019-05-17T10:16:10.824Z,6.90
2019-05-17T10:18:16.198Z,6.37
2019-05-17T10:20:21.358Z,8.40
2019-05-17T10:22:26.579Z,8.77
2019-05-17T10:24:38.088Z,8.47
2019-05-17T10:26:39.087Z,9.13
2019-05-17T10:28:44.387Z,6.87
2019-05-17T10:30:52.311Z,9.40
2019-05-17T10:32:56.939Z,7.17
2019-05-17T10:35:02.486Z,6.77
2019-05-17T10:37:10.300Z,5.40
2019-05-17T10:39:14.843Z,4.63
2019-05-17T10:41:20.197Z,6.00
2019-05-17T10:43:25.398Z,6.33
2019-05-17T10:45:30.868Z,4.47
2019-05-17T10:47:36.225Z,4.70
2019-05-17T10:49:41.664Z,7.40
2019-05-17T10:51:49.242Z,5.00
2019-05-17T10:53:55.035Z,6.03
2019-05-17T10:56:00.817Z,4.40
2019-05-17T10:58:06.188Z,6.10
2019-05-17T11:00:12.332Z,5.90
2019-05-17T11:02:19.659Z,5.50
2019-05-17T11:04:26.063Z,5.00
2019-05-17T11:06:31.305Z,9.97
2019-05-17T11:08:36.546Z,7.27
2019-05-17T11:10:41.736Z,6.57
2019-05-17T11:12:46.866Z,9.80
2019-05-17T11:15:09.380Z,5.57
2019-05-17T11:17:00.211Z,4.90
2019-05-17T11:19:08.854Z,5.70
2019-05-17T11:21:14.531Z,9.00
2019-05-17T11:23:19.934Z,9.40
2019-05-17T11:25:25.656Z,8.53
2019-05-17T11:27:32.269Z,7.80
2019-05-17T11:29:38.127Z,11.40
2019-05-17T11:31:43.177Z,9.57
2019-05-17T11:33:48.856Z,6.77
2019-05-17T11:35:54.466Z,5.97
2019-05-17T11:38:01.434Z,13.80
2019-05-17T11:40:08.276Z,5.17
2019-05-17T11:42:13.527Z,6.27
2019-05-17T11:44:18.955Z,6.03
2019-05-17T11:46:35.699Z,5.87
2019-05-17T11:48:30.986Z,10.97
2019-05-17T11:50:36.069Z,6.60
2019-05-17T11:52:41.241Z,5.53
2019-05-17T11:54:46.020Z,6.43
2019-05-17T11:56:50.838Z,6.63
2019-05-17T11:58:55.957Z,4.80
2019-05-17T12:01:00.751Z,4.70
2019-05-17T12:03:05.839Z,4.43
2019-05-17T12:05:10.993Z,4.30
2019-05-17T12:07:16.058Z,4.30
2019-05-17T12:09:36.222Z,7.30
2019-05-17T12:11:28.144Z,4.50
2019-05-17T12:13:33.279Z,3.60
2019-05-17T12:15:44.902Z,6.60
2019-05-17T12:17:45.462Z,10.83
2019-05-17T12:19:50.974Z,3.30
2019-05-17T12:21:56.178Z,8.10
2019-05-17T12:24:01.473Z,4.27
2019-05-17T12:26:06.635Z,4.77
2019-05-17T12:28:11.779Z,5.13
2019-05-17T12:30:17.703Z,3.00
2019-05-17T12:32:23.163Z,3.40
2019-05-17T12:34:28.333Z,4.80
2019-05-17T12:36:33.482Z,5.10
2019-05-17T12:38:38.589Z,5.10
2019-05-17T12:40:43.847Z,3.87
2019-05-17T12:42:49.192Z,7.27
2019-05-17T12:44:54.638Z,5.50
2019-05-17T12:46:59.749Z,5.77
2019-05-17T12:49:04.923Z,4.77
2019-05-17T12:51:10.078Z,6.70
2019-05-17T12:53:15.422Z,5.20
2019-05-17T12:55:20.673Z,5.30
2019-05-17T12:57:25.808Z,5.23
2019-05-17T12:59:30.892Z,6.47
2019-05-17T13:01:36.481Z,6.60
2019-05-17T13:03:42.274Z,4.73
2019-05-17T13:05:48.465Z,6.80
2019-05-17T13:07:53.704Z,5.83
2019-05-17T13:09:58.967Z,4.87
2019-05-17T13:12:04.078Z,4.83
2019-05-17T13:14:09.153Z,5.17
2019-05-17T13:16:17.898Z,6.00
2019-05-17T13:18:21.428Z,9.07
2019-05-17T13:20:26.579Z,6.13
2019-05-17T13:22:31.720Z,5.17
2019-05-17T13:24:36.832Z,5.77
2019-05-17T13:26:41.957Z,6.20
2019-05-17T13:28:47.105Z,4.93
2019-05-17T13:30:52.195Z,5.27
2019-05-17T13:32:57.129Z,5.20
2019-05-17T13:35:02.275Z,5.80
2019-05-17T13:37:07.314Z,5.57
2019-05-17T13:39:12.693Z,6.00
2019-05-17T13:41:17.923Z,6.63
2019-05-17T13:43:23.062Z,6.33
2019-05-17T13:45:28.499Z,8.30
2019-05-17T13:47:33.716Z,6.27
2019-05-17T13:49:39.162Z,6.63
2019-05-17T13:51:44.385Z,6.17
2019-05-17T13:53:49.629Z,6.73
2019-05-17T13:55:54.984Z,5.83
2019-05-17T13:58:00.095Z,12.27
2019-05-17T14:00:06.450Z,8.63
2019-05-17T14:02:11.716Z,8.70
2019-05-17T14:04:17.033Z,7.33
2019-05-17T14:06:22.757Z,6.43
2019-05-17T14:08:29.164Z,8.70
2019-05-17T14:10:34.269Z,6.97
2019-05-17T14:12:39.413Z,6.27
2019-05-17T14:14:44.791Z,10.07
2019-05-17T14:16:50.382Z,10.33
2019-05-17T14:18:55.629Z,8.10
2019-05-17T14:21:01.907Z,7.23
2019-05-17T14:23:07.465Z,9.67
2019-05-17T14:25:12.987Z,7.80
2019-05-17T14:27:18.198Z,14.70
2019-05-17T14:29:23.403Z,8.60
2019-05-17T14:31:31.505Z,6.57
2019-05-17T14:34:09.724Z,11.17
2019-05-17T14:37:07.219Z,7.07
2019-05-17T14:39:24.608Z,14.60
2019-05-17T14:41:57.272Z,10.97
2019-05-17T14:44:16.898Z,9.20
2019-05-17T14:46:48.850Z,8.85
2019-05-17T14:49:15.478Z,8.23
2019-05-17T14:52:18.013Z,12.73
2019-05-17T14:54:50.696Z,9.10
2019-05-17T14:57:09.837Z,8.23
2019-05-17T14:59:47.533Z,8.13
2019-05-17T15:07:52.045Z,8.70
2019-05-17T15:10:32.888Z,12.27
2019-05-17T15:13:04.200Z,8.00
2019-05-17T15:15:30.395Z,8.40
2019-05-17T15:18:09.252Z,11.13
2019-05-17T15:20:21.515Z,11.70
2019-05-17T15:23:04.922Z,15.47
2019-05-17T15:25:45.655Z,8.00
2019-05-17T15:28:25.133Z,10.37
2019-05-17T15:30:53.589Z,8.23
2019-05-17T15:36:00.968Z,12.20
2019-05-17T15:38:18.893Z,9.27
2019-05-17T15:43:12.754Z,10.83
2019-05-17T15:49:00.623Z,18.23
2019-05-17T15:51:38.457Z,20.47
2019-05-17T15:54:08.833Z,11.97
2019-05-17T15:56:37.486Z,20.20
2019-05-17T15:59:38.680Z,13.83
2019-05-17T16:05:08.639Z,18.63
2019-05-17T16:07:27.410Z,16.43
2019-05-17T16:10:03.385Z,17.62
2019-05-17T16:15:26.708Z,11.50
2019-05-17T16:17:52.135Z,14.43
2019-05-17T16:20:16.807Z,18.57
2019-05-17T16:22:46.854Z,11.77
2019-05-17T16:30:43.083Z,13.70
2019-05-17T16:33:07.608Z,17.40
2019-05-17T16:35:32.802Z,14.53
2019-05-17T16:38:04.806Z,16.32
2019-05-17T16:40:45.940Z,15.10
2019-05-17T16:43:17.702Z,11.83
2019-05-17T16:45:42.696Z,14.03
2019-05-17T16:48:05.103Z,17.67
2019-05-17T16:51:05.842Z,15.03
2019-05-17T16:53:25.261Z,14.20
2019-05-17T16:55:30.879Z,15.60
2019-05-17T16:57:35.761Z,12.43
2019-05-17T16:59:40.870Z,15.40
2019-05-17T17:01:46.003Z,16.50
2019-05-17T17:03:51.260Z,13.83
2019-05-17T17:05:56.393Z,17.97
2019-05-17T17:08:01.707Z,16.30
2019-05-17T17:10:06.932Z,12.57
2019-05-17T17:12:11.950Z,14.30
2019-05-17T17:14:17.488Z,12.93
2019-05-17T17:16:23.028Z,11.77
2019-05-17T17:18:28.063Z,13.73
2019-05-17T17:20:33.468Z,15.50
2019-05-17T17:22:38.242Z,12.37
2019-05-17T17:24:43.002Z,13.63
2019-05-17T17:26:48.399Z,17.50
2019-05-17T17:28:53.794Z,15.10
2019-05-17T17:30:59.287Z,19.20
2019-05-17T17:33:04.281Z,15.67
2019-05-17T17:35:09.828Z,14.20
2019-05-17T17:37:15.025Z,14.60
2019-05-17T17:39:20.100Z,15.80
2019-05-17T17:41:26.678Z,16.30
2019-05-17T17:43:32.838Z,12.33
2019-05-17T17:45:38.520Z,20.97
2019-05-17T17:47:43.959Z,16.00
2019-05-17T17:49:49.215Z,21.90
2019-05-17T17:51:54.433Z,13.70
2019-05-17T17:54:02.499Z,16.43
2019-05-17T17:56:07.695Z,16.87
2019-05-17T17:58:13.278Z,16.20
2019-05-17T18:00:19.363Z,15.07
2019-05-17T18:02:24.677Z,14.60
2019-05-17T18:04:30.085Z,17.87
2019-05-17T18:06:35.360Z,14.70
2019-05-17T18:08:40.478Z,17.80
2019-05-17T18:10:46.654Z,16.50
2019-05-17T18:12:52.242Z,17.57
2019-05-17T18:14:57.712Z,15.60
2019-05-17T18:17:03.273Z,15.97
2019-05-17T18:19:08.382Z,17.10
2019-05-17T18:21:13.607Z,17.67
2019-05-17T18:23:23.162Z,16.50
2019-05-17T18:25:26.280Z,18.97
2019-05-17T18:27:31.471Z,18.10
2019-05-17T18:29:36.717Z,19.47
2019-05-17T18:31:41.965Z,21.00
2019-05-17T18:33:47.203Z,19.00
2019-05-17T18:35:52.489Z,18.33
2019-05-17T18:37:57.797Z,18.30
2019-05-17T18:40:03.110Z,17.73
2019-05-17T18:42:08.307Z,13.20
2019-05-17T18:44:26.879Z,19.50
2019-05-17T18:46:21.316Z,17.07
2019-05-17T18:48:26.483Z,15.83
2019-05-17T18:50:31.756Z,16.23
2019-05-17T18:52:37.363Z,12.80
2019-05-17T18:54:43.854Z,14.28
2019-05-17T18:56:49.206Z,13.97
2019-05-17T18:58:54.541Z,14.23
2019-05-17T19:00:59.492Z,14.00
2019-05-17T19:03:04.623Z,13.07
2019-05-17T19:05:09.979Z,11.93
2019-05-17T19:07:15.623Z,16.93
2019-05-17T19:09:20.813Z,12.97
2019-05-17T19:11:26.242Z,12.03
2019-05-17T19:13:31.568Z,11.00
2019-05-17T19:15:36.722Z,13.13
2019-05-17T19:17:42.059Z,14.20
2019-05-17T19:19:47.380Z,16.37
2019-05-17T19:21:52.590Z,17.00
2019-05-17T19:23:57.984Z,14.47
2019-05-17T19:26:03.618Z,14.23
2019-05-17T19:28:08.672Z,13.30
2019-05-17T19:30:15.008Z,12.90
2019-05-17T19:32:20.289Z,16.03
2019-05-17T19:34:25.861Z,17.93
2019-05-17T19:36:31.155Z,16.07
2019-05-17T19:38:36.366Z,13.23
2019-05-17T19:40:42.080Z,18.07
2019-05-17T19:42:47.458Z,17.50
2019-05-17T19:44:58.929Z,16.63
2019-05-17T19:46:59.604Z,17.40
2019-05-17T19:49:04.959Z,16.40
2019-05-17T19:51:10.173Z,15.03
2019-05-17T19:53:15.636Z,20.83
2019-05-17T19:55:20.925Z,14.77
2019-05-17T19:57:26.085Z,12.90
2019-05-17T19:59:31.432Z,15.10
2019-05-17T20:01:36.551Z,15.17
2019-05-17T20:03:42.135Z,12.67
2019-05-17T20:05:47.433Z,14.33
2019-05-17T20:07:53.016Z,14.60
2019-05-17T20:09:59.946Z,18.73
2019-05-17T20:12:05.468Z,16.77
2019-05-17T20:14:10.695Z,15.47
2019-05-17T20:16:15.839Z,13.47
2019-05-17T20:18:20.893Z,14.10
2019-05-17T20:20:26.105Z,10.57
2019-05-17T20:22:31.741Z,13.88
2019-05-17T20:24:37.004Z,16.33
2019-05-17T20:26:42.331Z,15.90
2019-05-17T20:28:47.705Z,12.53
2019-05-17T20:30:52.881Z,15.10
2019-05-17T20:32:57.977Z,12.97
2019-05-17T20:35:03.903Z,14.30
2019-05-17T20:37:09.204Z,13.80
2019-05-17T20:39:14.565Z,17.33
2019-05-17T20:41:19.830Z,16.47
2019-05-17T20:43:24.996Z,15.33
2019-05-17T20:45:33.095Z,12.87
2019-05-17T20:47:37.115Z,12.63
2019-05-17T20:49:42.686Z,13.93
2019-05-17T20:51:48.234Z,14.37
2019-05-17T20:53:53.725Z,13.47
2019-05-17T20:55:58.808Z,12.50
2019-05-17T20:58:05.389Z,21.43
2019-05-17T21:00:11.267Z,15.47
2019-05-17T21:02:16.485Z,14.80
2019-05-17T21:04:22.382Z,17.07
2019-05-17T21:06:28.167Z,13.97
2019-05-17T21:08:45.788Z,14.13
2019-05-17T21:10:40.441Z,14.90
2019-05-17T21:12:46.802Z,18.27
2019-05-17T21:14:56.171Z,15.83
2019-05-17T21:16:59.538Z,15.70
2019-05-17T21:19:04.621Z,15.43
2019-05-17T21:21:09.629Z,14.00
2019-05-17T21:23:15.047Z,17.90
2019-05-17T21:25:21.399Z,17.90
2019-05-17T21:27:26.780Z,17.43
2019-05-17T21:29:31.860Z,14.80
2019-05-17T21:31:37.020Z,17.30
2019-05-17T21:33:42.262Z,16.73
2019-05-17T21:35:47.386Z,16.90
2019-05-17T21:37:53.254Z,16.70
2019-05-17T21:39:58.490Z,18.48
2019-05-17T21:42:03.732Z,17.23
2019-05-17T21:44:08.804Z,18.57
2019-05-17T21:46:13.928Z,18.10
2019-05-17T21:48:19.294Z,20.67
2019-05-17T21:50:24.310Z,20.30
2019-05-17T21:52:29.441Z,21.90
2019-05-17T21:54:34.908Z,21.97
2019-05-17T21:56:39.984Z,23.30
2019-05-17T21:58:45.107Z,23.00
2019-05-17T22:01:26.080Z,23.30
2019-05-17T22:03:31.526Z,20.13
2019-05-17T22:05:36.756Z,20.03
2019-05-17T22:07:42.221Z,22.65
2019-05-17T22:09:47.652Z,23.50
2019-05-17T22:11:54.567Z,23.97
2019-05-17T22:13:59.783Z,19.77
2019-05-17T22:16:18.487Z,18.30
2019-05-17T22:18:11.659Z,18.67
2019-05-17T22:20:16.918Z,19.03
2019-05-17T22:22:22.150Z,21.03
2019-05-17T22:24:27.373Z,21.80
2019-05-17T22:26:32.540Z,20.23
2019-05-17T22:28:37.718Z,20.80
2019-05-17T22:30:42.937Z,23.43
2019-05-17T22:32:48.929Z,17.30
2019-05-17T22:34:53.947Z,18.80
2019-05-17T22:36:59.465Z,17.13
2019-05-17T22:39:05.708Z,18.73
2019-05-17T22:41:11.008Z,16.60
2019-05-17T22:43:16.145Z,18.00
2019-05-17T22:45:21.283Z,18.60
2019-05-17T22:47:26.724Z,18.33
2019-05-17T22:49:32.196Z,19.40
2019-05-17T22:51:37.520Z,22.93
2019-05-17T22:53:42.649Z,18.10
2019-05-17T22:55:47.830Z,18.00
2019-05-17T22:57:53.010Z,19.70
2019-05-17T22:59:58.514Z,17.33
2019-05-17T23:02:03.537Z,21.47
2019-05-17T23:04:10.455Z,17.48
2019-05-17T23:06:15.873Z,17.57
2019-05-17T23:08:21.035Z,16.07
2019-05-17T23:10:26.358Z,17.83
2019-05-17T23:12:31.716Z,17.20
2019-05-17T23:14:37.231Z,16.30
2019-05-17T23:16:51.105Z,17.00
2019-05-17T23:19:08.386Z,17.97
2019-05-17T23:21:13.471Z,13.30
2019-05-17T23:23:18.465Z,16.23
2019-05-17T23:25:23.806Z,16.10
2019-05-17T23:27:29.039Z,16.30
2019-05-17T23:29:34.084Z,16.10
2019-05-17T23:31:39.098Z,22.77
2019-05-17T23:33:44.162Z,14.10
2019-05-17T23:35:50.374Z,13.73
2019-05-17T23:37:56.955Z,15.10
2019-05-17T23:40:02.119Z,17.20
2019-05-17T23:42:07.549Z,15.40
2019-05-17T23:44:12.793Z,14.87
2019-05-17T23:46:17.820Z,16.63
2019-05-17T23:48:22.952Z,17.47
2019-05-17T23:50:28.468Z,14.80
2019-05-17T23:52:33.562Z,22.63
2019-05-17T23:54:39.250Z,16.50
2019-05-17T23:56:44.430Z,14.57
2019-05-17T23:58:49.522Z,15.13
